AirNav   Pilot Hours Calculator
 
 1451 users online  

OK42 Lariat Ranch Airport
Talala, Oklahoma, USA

GOING TO TALALA?


FAA INFORMATION EFFECTIVE 01 DECEMBER 2022

Location

FAA Identifier: OK42
Lat/Long: 36-34-42.8400N 095-41-11.5900W
36-34.714000N 095-41.193167W
36.5785667,-95.6865528
(estimated)
Elevation: 684 ft. / 208 m (estimated)
From city: 6 miles SSW of TALALA, OK
Time zone: UTC -6 (UTC -5 during Daylight Saving Time)
Zip code: 74080

Airport Operations

Airport use: Private use. Permission required prior to landing
Activation date: 08/2014
Control tower: no
ARTCC: KANSAS CITY CENTER
FSS: MC ALESTER FLIGHT SERVICE STATION
Attendance: UNATNDD
Segmented circle: no

Airport Communications

WX ASOS at BVO (19 nm NW): 132.675 (918-336-2070)
WX AWOS-3P at GCM (20 nm SE): 119.925 (918-343-0184)

Nearby radio navigation aids

VOR radial/distance  VOR name  Freq  Var
BVOr126/22.1BARTLESVILLE VOR/DME117.9008E
TULr004/23.5TULSA VORTAC114.4008E

Airport Services

Runway Information

Runway 18/36

Dimensions: 2183 x 60 ft. / 665 x 18 m
Surface: turf
RUNWAY 18  RUNWAY 36
Traffic pattern: leftleft

Airport Ownership and Management from official FAA records

Ownership: Privately-owned
Owner: LARIAT RANCH LLC
8605 S ELWOOD AVE. # B-124
TULSA, OK 74132
Phone (918) 625-9580
RANDY FOUTCH, CEO, LARIAT RANCH LLC
Manager: COLBY PETERS
8605 S ELWOOD AVE. # B-124
TULSA, OK 74132
Phone (918) 625-9450

Additional Remarks

FOR CD CTC TULSA APCH AT 918-831-6714/6720.

Instrument Procedures

There are no published instrument procedures at OK42.

Some nearby airports with instrument procedures:

KBVO - Bartlesville Municipal Airport (19 nm NW)
KGCM - Claremore Regional Airport (20 nm SE)
KTUL - Tulsa International Airport (25 nm SW)
H71 - Mid-America Industrial Airport (27 nm SE)
KCFV - Coffeyville Municipal Airport (31 nm N)
 
Loc | Ops | Rwys | IFR | FBO | Links
Com | Nav | Svcs | Stats | Notes
Aerial photo
No photo
 
Airport distance calculator
Flying to Lariat Ranch Airport? Find the distance to fly.

From to OK42

Sunrise and sunset
Times for 02-Dec-2022
 Local
(UTC-6)
 Zulu
(UTC)
Morning civil twilight06:5012:50
Sunrise07:1813:18
Sunset17:0623:06
Evening civil twilight17:3523:35

Current date and time
Zulu (UTC)  02-Dec-2022 16:44:30
Local (UTC-6)  02-Dec-2022 10:44:30
 
METAR
KGCM 
19nm SE 
021635Z AUTO 19017G22KT 10SM OVC013 11/08 A2995 RMK AO2
KBVO 
19nm NW 
021553Z AUTO 18012G21KT 10SM OVC013 10/08 A2991 RMK AO2 SLP124 T01000078
KTUL 
25nm SW 
021553Z 18018G33KT 10SM OVC015 11/08 A2994 RMK AO2 PK WND 20033/1538 SLP137 T01110078
KH71 
27nm SE 
021635Z AUTO 19016G24KT 10SM OVC014 11/08 A2995 RMK AO2
KCFV 
31nm N 
021559Z AUTO 18019G30KT 10SM OVC015 11/07 A2988 RMK AO2 PK WND 19030/1557 T01060067
KOWP 
33nm SW 
021635Z AUTO 18013G17KT 10SM OVC010 12/09 A2996 RMK AO2 T01160090
KRVS 
35nm SW 
021553Z 19015G26KT 10SM OVC014 11/07 A2996 RMK AO2 PK WND 20032/1523 SLP147 T01060067
KIDP 
35nm N 
021635Z AUTO 19019G26KT 10SM OVC014 11/08 A2988 RMK AO2 T01090076
TAF
KBVO 
19nm NW 
021121Z 0212/0312 19013G22KT P6SM OVC018 FM021800 20022G38KT P6SM BKN050 FM030000 21014G25KT P6SM BKN250 FM030200 29012KT P6SM BKN250 FM030400 34019G30KT P6SM BKN250 FM031000 01011G20KT P6SM FEW250
NOTAMs
Click for the latest NOTAMs
NOTAMs are issued by the DoD/FAA and will open in a separate window not controlled by AirNav.

 

 
 

Would you like to see your business listed on this page?

 If your business provides an interesting product or service to pilots, flight crews, aircraft, or users of the Lariat Ranch Airport, you should consider listing it here.  To start the listing process, click on the button below
 
Add a business
 

Other Pages about Lariat Ranch Airport

Update a link
 
Copyright © AirNav, LLC. All rights reserved. Privacy Policy  Contact